createdAt,value
2022-09-20T00:01:23.041Z,96044.63
2022-09-20T00:03:53.207Z,96058.91
2022-09-20T00:06:22.640Z,96068.09
2022-09-20T00:08:50.883Z,96079.88
2022-09-20T00:11:20.911Z,96095.81
2022-09-20T00:13:50.574Z,96107.56
2022-09-20T00:16:21.621Z,96116.91
2022-09-20T00:18:50.596Z,96118.38
2022-09-20T00:21:19.949Z,96127.69
2022-09-20T00:23:47.894Z,96138.66
2022-09-20T00:26:15.841Z,96135.94
2022-09-20T00:28:44.403Z,96152.84
2022-09-20T00:31:13.042Z,96169.72
2022-09-20T00:34:00.206Z,96171.38
2022-09-20T00:36:28.290Z,96175.56
2022-09-20T00:38:57.547Z,96195.00
2022-09-20T00:41:25.978Z,96195.69
2022-09-20T00:43:54.745Z,96199.75
2022-09-20T00:46:27.220Z,96212.59
2022-09-20T00:49:00.967Z,96211.50
2022-09-20T00:51:32.939Z,96213.25
2022-09-20T00:54:04.000Z,96205.84
2022-09-20T00:56:35.600Z,96202.44
2022-09-20T00:59:09.854Z,96210.97
2022-09-20T01:01:38.370Z,96212.59
2022-09-20T01:04:07.504Z,96208.41
2022-09-20T01:06:37.122Z,96209.34
2022-09-20T01:09:07.689Z,96195.81
2022-09-20T01:11:37.258Z,96189.22
2022-09-20T01:14:05.705Z,96175.81
2022-09-20T01:16:34.650Z,96163.25
2022-09-20T01:19:09.640Z,96154.75
2022-09-20T01:21:38.994Z,96151.50
2022-09-20T01:24:14.516Z,96145.69
2022-09-20T01:27:12.750Z,96144.88
2022-09-20T01:29:57.895Z,96135.53
2022-09-20T01:32:33.273Z,96140.69
2022-09-20T01:35:02.719Z,96135.69
2022-09-20T01:37:41.765Z,96140.00
2022-09-20T01:40:15.866Z,96129.75
2022-09-20T01:42:51.023Z,96128.13
2022-09-20T01:45:27.961Z,96121.63
2022-09-20T01:48:06.431Z,96113.94
2022-09-20T01:50:38.092Z,96114.88
2022-09-20T01:53:41.858Z,96118.41
2022-09-20T01:56:49.078Z,96119.88
2022-09-20T01:59:49.681Z,96128.94
2022-09-20T02:03:02.881Z,96153.53
2022-09-20T02:06:07.061Z,96154.19
2022-09-20T02:09:04.621Z,96167.72
2022-09-20T02:11:47.105Z,96180.13
2022-09-20T02:14:31.561Z,96192.03
2022-09-20T02:17:12.107Z,96192.72
2022-09-20T02:20:21.651Z,96218.94
2022-09-20T02:23:06.743Z,96234.09
2022-09-20T02:25:54.231Z,96245.88
2022-09-20T02:28:32.208Z,96252.47
2022-09-20T02:31:14.190Z,96259.94
2022-09-20T02:33:56.379Z,96282.78
2022-09-20T02:36:39.168Z,96285.19
2022-09-20T02:39:14.288Z,96291.84
2022-09-20T02:41:56.921Z,96304.41
2022-09-20T02:44:38.301Z,96320.41
2022-09-20T02:47:14.789Z,96321.22
2022-09-20T02:49:58.035Z,96329.59
2022-09-20T02:52:33.252Z,96349.88
2022-09-20T02:55:08.813Z,96365.03
2022-09-20T02:57:45.800Z,96370.84
2022-09-20T03:00:19.745Z,96376.66
2022-09-20T03:02:57.958Z,96377.59
2022-09-20T03:05:33.101Z,96388.44
2022-09-20T03:08:22.744Z,96391.03
2022-09-20T03:11:02.993Z,96379.22
2022-09-20T03:13:44.391Z,96365.03
2022-09-20T03:16:23.821Z,96363.41
2022-09-20T03:19:01.527Z,96357.44
2022-09-20T03:21:41.276Z,96358.38
2022-09-20T03:24:22.341Z,96349.88
2022-09-20T03:26:59.413Z,96355.81
2022-09-20T03:29:40.603Z,96343.38
2022-09-20T03:32:27.624Z,96335.81
2022-09-20T03:35:07.332Z,96336.63
2022-09-20T03:37:51.492Z,96334.97
2022-09-20T03:40:42.822Z,96323.06
2022-09-20T03:43:28.316Z,96317.28
2022-09-20T03:46:13.797Z,96320.78
2022-09-20T03:48:58.670Z,96320.78
2022-09-20T03:51:33.883Z,96317.41
2022-09-20T03:54:31.315Z,96309.84
2022-09-20T03:57:25.240Z,96308.19
2022-09-20T04:00:06.209Z,96305.63
2022-09-20T04:03:14.385Z,96302.25
2022-09-20T04:05:53.326Z,96304.81
2022-09-20T04:08:37.945Z,96308.19
2022-09-20T04:11:17.983Z,96308.19
2022-09-20T04:13:55.848Z,96314.97
2022-09-20T04:16:33.611Z,96317.41
2022-09-20T04:19:11.585Z,96319.19
2022-09-20T04:21:44.742Z,96314.19
2022-09-20T04:24:21.343Z,96306.56
2022-09-20T04:26:53.410Z,96309.94
2022-09-20T04:29:31.958Z,96304.81
2022-09-20T04:32:13.020Z,96313.34
2022-09-20T04:35:05.905Z,96315.91
2022-09-20T04:37:38.430Z,96311.72
2022-09-20T04:40:15.591Z,96324.47
2022-09-20T04:43:22.206Z,96308.34
2022-09-20T04:46:40.688Z,96311.72
2022-09-20T04:49:25.869Z,96321.03
2022-09-20T04:52:11.121Z,96332.03
2022-09-20T04:55:15.672Z,96338.78
2022-09-20T04:58:22.049Z,96347.97
2022-09-20T05:01:09.605Z,96341.34
2022-09-20T05:04:08.496Z,96343.13
2022-09-20T05:07:04.515Z,96337.03
2022-09-20T05:10:07.667Z,96352.97
2022-09-20T05:13:09.580Z,96362.44
2022-09-20T05:15:45.419Z,96362.19
2022-09-20T05:19:01.968Z,96379.09
2022-09-20T05:21:58.370Z,96385.84
2022-09-20T05:24:53.748Z,96383.44
2022-09-20T05:27:40.636Z,96379.09
2022-09-20T05:30:19.489Z,96375.72
2022-09-20T05:32:53.529Z,96378.16
2022-09-20T05:35:27.473Z,96389.25
2022-09-20T05:38:05.136Z,96387.47
2022-09-20T05:40:47.084Z,96387.47
2022-09-20T05:43:21.178Z,96389.13
2022-09-20T05:46:03.575Z,96402.66
2022-09-20T05:48:40.184Z,96393.31
2022-09-20T05:51:17.680Z,96389.25
2022-09-20T05:54:08.212Z,96391.81
2022-09-20T05:56:46.262Z,96393.44
2022-09-20T05:59:26.416Z,96403.59
2022-09-20T06:02:11.192Z,96406.03
2022-09-20T06:04:46.666Z,96422.13
2022-09-20T06:07:23.914Z,96411.84
2022-09-20T06:10:26.320Z,96417.00
2022-09-20T06:13:02.284Z,96422.94
2022-09-20T06:15:37.509Z,96438.94
2022-09-20T06:18:21.755Z,96450.56
2022-09-20T06:21:01.236Z,96449.75
2022-09-20T06:23:29.387Z,96460.69
2022-09-20T06:26:02.522Z,96467.50
2022-09-20T06:28:34.496Z,96477.63
2022-09-20T06:31:07.350Z,96490.22
2022-09-20T06:33:44.243Z,96493.50
2022-09-20T06:36:33.840Z,96500.13
2022-09-20T06:39:29.612Z,96512.69
2022-09-20T06:41:59.315Z,96535.47
2022-09-20T06:44:27.213Z,96545.59
2022-09-20T06:46:55.057Z,96553.06
2022-09-20T06:49:24.106Z,96556.47
2022-09-20T06:51:52.471Z,96556.47
2022-09-20T06:54:22.965Z,96559.72
2022-09-20T06:56:52.480Z,96572.44
2022-09-20T06:59:21.770Z,96587.63
2022-09-20T07:01:49.881Z,96608.59
2022-09-20T07:04:17.783Z,96610.22
2022-09-20T07:06:48.056Z,96619.56
2022-09-20T07:09:15.865Z,96620.25
2022-09-20T07:11:46.265Z,96627.84
2022-09-20T07:14:15.572Z,96645.59
2022-09-20T07:16:44.757Z,96653.06
2022-09-20T07:19:12.668Z,96673.22
2022-09-20T07:21:40.450Z,96704.31
2022-09-20T07:24:08.375Z,96724.34
2022-09-20T07:26:36.243Z,96752.28
2022-09-20T07:29:04.205Z,96773.31
2022-09-20T07:31:32.055Z,96773.31
2022-09-20T07:34:01.278Z,96753.78
2022-09-20T07:36:29.302Z,96745.50
2022-09-20T07:38:57.314Z,96730.44
2022-09-20T07:41:25.706Z,96706.88
2022-09-20T07:43:53.587Z,96696.81
2022-09-20T07:46:22.230Z,96689.38
2022-09-20T07:48:50.206Z,96670.13
2022-09-20T07:51:19.327Z,96662.53
2022-09-20T07:53:47.184Z,96640.56
2022-09-20T07:56:18.251Z,96647.34
2022-09-20T07:58:50.036Z,96661.72
2022-09-20T08:01:20.990Z,96670.94
2022-09-20T08:03:49.106Z,96683.53
2022-09-20T08:06:18.403Z,96702.13
2022-09-20T08:09:13.965Z,96723.94
2022-09-20T08:11:43.475Z,96743.19
2022-09-20T08:17:07.575Z,96767.59
2022-09-20T08:19:35.514Z,96781.03
2022-09-20T08:22:03.294Z,96778.56
2022-09-20T08:24:32.470Z,96760.00
2022-09-20T08:27:00.395Z,96767.59
2022-09-20T08:29:28.211Z,96770.16
2022-09-20T08:31:58.211Z,96745.75
2022-09-20T08:34:31.225Z,96742.50
2022-09-20T08:36:59.446Z,96746.69
2022-09-20T08:42:37.920Z,96761.91
2022-09-20T08:45:33.824Z,96778.69
2022-09-20T08:48:07.188Z,96806.38
2022-09-20T08:50:35.152Z,96823.22
2022-09-20T08:53:04.983Z,96845.97
2022-09-20T08:55:37.525Z,96838.38
2022-09-20T08:58:09.016Z,96847.63
2022-09-20T09:00:38.890Z,96874.75
2022-09-20T09:03:12.798Z,96885.50
2022-09-20T09:05:45.330Z,96920.78
2022-09-20T09:08:16.641Z,96936.94
2022-09-20T09:10:47.066Z,96966.28
2022-09-20T09:13:23.707Z,97016.09
2022-09-20T09:15:58.042Z,97056.56
2022-09-20T09:18:38.684Z,97093.53
2022-09-20T09:21:12.164Z,97105.22
2022-09-20T09:23:42.894Z,97094.22
2022-09-20T09:26:19.004Z,97090.13
2022-09-20T09:28:49.347Z,97093.53
2022-09-20T09:31:30.140Z,97096.09
2022-09-20T09:33:57.952Z,97082.50
2022-09-20T09:36:27.152Z,97111.31
2022-09-20T09:39:16.459Z,97151.56
2022-09-20T09:41:46.320Z,97199.66
2022-09-20T09:44:24.352Z,97221.56
2022-09-20T09:46:53.644Z,97212.31
2022-09-20T09:49:23.568Z,97223.44
2022-09-20T09:52:08.391Z,97215.00
2022-09-20T09:54:39.334Z,97223.44
2022-09-20T09:57:20.503Z,97217.47
2022-09-20T10:00:07.367Z,97240.97
2022-09-20T10:03:09.467Z,97266.41
2022-09-20T10:05:45.223Z,97248.72
2022-09-20T10:08:24.582Z,97250.47
2022-09-20T10:11:12.170Z,97263.13
2022-09-20T10:13:51.575Z,97282.56
2022-09-20T10:16:30.111Z,97283.38
2022-09-20T10:19:07.468Z,97343.22
2022-09-20T10:21:49.179Z,97418.22
2022-09-20T10:24:31.270Z,97463.84
2022-09-20T10:27:14.786Z,97482.47
2022-09-20T10:29:57.279Z,97498.53
2022-09-20T10:32:41.900Z,97505.34
2022-09-20T10:35:20.843Z,97502.78
2022-09-20T10:38:07.327Z,97559.44
2022-09-20T10:41:00.454Z,97654.72
2022-09-20T10:43:49.188Z,97767.16
2022-09-20T10:46:32.263Z,97832.25
2022-09-20T10:49:18.145Z,97849.16
2022-09-20T10:52:00.679Z,97812.84
2022-09-20T10:54:42.682Z,97767.16
2022-09-20T10:57:46.603Z,97766.34
2022-09-20T11:00:22.176Z,97664.91
2022-09-20T11:03:04.652Z,97583.81
2022-09-20T11:05:44.677Z,97536.69
2022-09-20T11:08:16.311Z,97484.25
2022-09-20T11:10:49.958Z,97456.34
2022-09-20T11:13:26.096Z,97471.59
2022-09-20T11:16:00.876Z,97472.28
2022-09-20T11:18:33.821Z,97550.97
2022-09-20T11:21:09.728Z,97589.81
2022-09-20T11:23:50.942Z,97682.66
2022-09-20T11:26:26.597Z,97752.03
2022-09-20T11:28:59.152Z,97809.44
2022-09-20T11:31:28.149Z,97880.53
2022-09-20T11:34:02.738Z,97877.94
2022-09-20T11:36:39.439Z,97948.22
2022-09-20T11:39:17.870Z,97996.41
2022-09-20T11:41:47.226Z,98043.91
2022-09-20T11:44:20.468Z,98097.22
2022-09-20T11:46:56.722Z,98092.16
2022-09-20T11:49:29.661Z,98100.75
2022-09-20T11:52:19.566Z,98123.56
2022-09-20T11:55:14.693Z,98160.91
2022-09-20T11:57:42.589Z,98218.34
2022-09-20T12:00:11.356Z,98271.09
2022-09-20T12:02:48.447Z,98347.41
2022-09-20T12:05:32.159Z,98423.66
2022-09-20T12:08:03.161Z,98469.63
2022-09-20T12:10:35.183Z,98518.81
2022-09-20T12:13:05.644Z,98538.28
2022-09-20T12:15:36.013Z,98571.41
2022-09-20T12:18:15.577Z,98569.78
2022-09-20T12:21:05.806Z,98552.66
2022-09-20T12:26:45.161Z,98575.78
2022-09-20T12:29:55.564Z,98596.91
2022-09-20T12:32:45.287Z,98595.22
2022-09-20T12:35:55.952Z,98517.03
2022-09-20T12:38:48.166Z,98333.75
2022-09-20T12:41:27.928Z,98192.81
2022-09-20T12:44:01.764Z,98073.47
2022-09-20T12:46:50.723Z,97971.97
2022-09-20T12:49:46.495Z,97892.38
2022-09-20T12:52:56.257Z,97783.13
2022-09-20T12:55:34.641Z,97719.84
2022-09-20T12:58:05.918Z,97720.53
2022-09-20T13:00:40.557Z,97770.47
2022-09-20T13:03:13.932Z,97841.38
2022-09-20T13:05:45.798Z,97922.72
2022-09-20T13:08:17.280Z,97991.13
2022-09-20T13:10:51.051Z,98085.34
2022-09-20T13:13:29.733Z,98173.25
2022-09-20T13:16:01.268Z,98278.50
2022-09-20T13:18:30.393Z,98375.34
2022-09-20T13:21:06.681Z,98396.56
2022-09-20T13:23:45.454Z,98437.22
2022-09-20T13:26:17.787Z,98476.25
2022-09-20T13:28:52.309Z,98515.38
2022-09-20T13:31:43.320Z,98583.31
2022-09-20T13:34:25.042Z,98568.81
2022-09-20T13:36:57.033Z,98494.97
2022-09-20T13:39:35.241Z,98393.97
2022-09-20T13:42:08.153Z,98329.53
2022-09-20T13:44:37.341Z,98393.16
2022-09-20T13:47:23.297Z,98493.34
2022-09-20T13:49:51.780Z,98568.94
2022-09-20T13:52:25.977Z,98636.78
2022-09-20T13:54:55.093Z,98662.41
2022-09-20T13:57:27.174Z,98732.88
2022-09-20T13:59:57.050Z,98769.47
2022-09-20T14:02:30.472Z,98801.72
2022-09-20T14:05:01.468Z,98866.31
2022-09-20T14:07:31.441Z,98858.66
2022-09-20T14:10:00.209Z,98840.72
2022-09-20T14:12:29.426Z,98816.97
2022-09-20T14:14:57.893Z,98808.34
2022-09-20T14:17:31.221Z,98801.59
2022-09-20T14:19:59.276Z,98788.84
2022-09-20T14:22:29.264Z,98758.28
2022-09-20T14:25:01.089Z,98661.34
2022-09-20T14:27:31.058Z,98599.25
2022-09-20T14:29:59.499Z,98567.06
2022-09-20T14:32:40.580Z,98561.03
2022-09-20T14:35:15.972Z,98580.47
2022-09-20T14:37:46.107Z,98640.06
2022-09-20T14:40:24.405Z,98670.53
2022-09-20T14:42:55.804Z,98708.00
2022-09-20T14:45:27.050Z,98742.81
2022-09-20T14:48:09.543Z,98782.72
2022-09-20T14:50:40.777Z,98780.13
2022-09-20T14:53:27.681Z,98767.38
2022-09-20T14:56:00.968Z,98751.19
2022-09-20T14:58:29.011Z,98741.03
2022-09-20T15:01:01.684Z,98723.09
2022-09-20T15:03:34.372Z,98695.94
2022-09-20T15:06:02.800Z,98667.88
2022-09-20T15:08:30.614Z,98658.53
2022-09-20T15:11:00.844Z,98608.34
2022-09-20T15:13:28.741Z,98572.50
2022-09-20T15:15:56.820Z,98552.19
2022-09-20T15:18:31.291Z,98519.06
2022-09-20T15:21:00.710Z,98474.13
2022-09-20T15:23:28.746Z,98430.75
2022-09-20T15:25:56.965Z,98396.81
2022-09-20T15:28:26.663Z,98359.47
2022-09-20T15:30:55.665Z,98349.22
2022-09-20T15:33:23.424Z,98341.53
2022-09-20T15:35:51.235Z,98330.59
2022-09-20T15:38:20.682Z,98290.66
2022-09-20T15:40:50.363Z,98256.63
2022-09-20T15:43:19.666Z,98209.97
2022-09-20T15:45:50.564Z,98186.31
2022-09-20T15:48:20.860Z,98169.38
2022-09-20T15:51:02.220Z,98150.66
2022-09-20T15:53:34.178Z,98143.97
2022-09-20T15:56:03.000Z,98132.09
2022-09-20T15:58:35.627Z,98118.41
2022-09-20T16:01:06.330Z,98125.25
2022-09-20T16:03:34.881Z,98130.31
2022-09-20T16:06:04.737Z,98137.13
2022-09-20T16:08:35.027Z,98126.91
2022-09-20T16:11:04.453Z,98109.13
2022-09-20T16:13:32.787Z,98098.06
2022-09-20T16:16:02.141Z,98089.47
2022-09-20T16:18:48.177Z,98079.44
2022-09-20T16:21:18.336Z,98048.03
2022-09-20T16:23:50.462Z,98024.38
2022-09-20T16:26:19.704Z,97992.16
2022-09-20T16:28:48.041Z,97955.59
2022-09-20T16:31:40.023Z,97942.22
2022-09-20T16:34:13.363Z,97908.25
2022-09-20T16:36:43.386Z,97910.94
2022-09-20T16:39:14.238Z,97893.88
2022-09-20T16:41:42.844Z,97882.03
2022-09-20T16:44:10.767Z,97886.38
2022-09-20T16:46:38.558Z,97870.16
2022-09-20T16:49:09.356Z,97862.50
2022-09-20T16:51:38.688Z,97860.88
2022-09-20T16:54:08.512Z,97861.69
2022-09-20T16:56:37.646Z,97858.28
2022-09-20T16:59:07.420Z,97847.25
2022-09-20T17:01:36.881Z,97836.22
2022-09-20T17:04:05.703Z,97827.84
2022-09-20T17:06:35.601Z,97802.47
2022-09-20T17:09:03.974Z,97761.84
2022-09-20T17:11:34.579Z,97739.78
2022-09-20T17:14:04.713Z,97733.19
2022-09-20T17:16:34.980Z,97718.75
2022-09-20T17:19:07.472Z,97700.19
2022-09-20T17:21:37.024Z,97673.06
2022-09-20T17:24:07.025Z,97655.47
2022-09-20T17:26:38.282Z,97632.59
2022-09-20T17:29:09.906Z,97604.81
2022-09-20T17:31:39.736Z,97579.59
2022-09-20T17:34:10.175Z,97574.53
2022-09-20T17:36:40.996Z,97560.09
2022-09-20T17:39:10.950Z,97556.00
2022-09-20T17:41:40.089Z,97534.75
2022-09-20T17:44:10.138Z,97528.91
2022-09-20T17:46:39.834Z,97511.19
2022-09-20T17:49:09.641Z,97490.75
2022-09-20T17:51:39.283Z,97490.06
2022-09-20T17:54:08.753Z,97483.25
2022-09-20T17:56:37.133Z,97481.59
2022-09-20T17:59:06.508Z,97472.34
2022-09-20T18:01:37.632Z,97469.75
2022-09-20T18:04:31.004Z,97446.06
2022-09-20T18:06:59.057Z,97429.22
2022-09-20T18:09:27.610Z,97403.06
2022-09-20T18:11:56.820Z,97366.75
2022-09-20T18:14:27.326Z,97344.13
2022-09-20T18:16:58.127Z,97304.44
2022-09-20T18:19:32.480Z,97268.22
2022-09-20T18:22:00.954Z,97220.09
2022-09-20T18:24:28.707Z,97174.44
2022-09-20T18:26:56.493Z,97149.41
2022-09-20T18:29:25.065Z,97104.69
2022-09-20T18:31:56.744Z,97071.16
2022-09-20T18:34:31.284Z,97043.28
2022-09-20T18:37:01.191Z,97017.34
2022-09-20T18:39:32.486Z,96986.94
2022-09-20T18:42:00.672Z,96961.81
2022-09-20T18:44:33.790Z,96936.56
2022-09-20T18:47:03.296Z,96894.34
2022-09-20T18:49:33.421Z,96868.28
2022-09-20T18:52:01.339Z,96844.78
2022-09-20T18:54:30.480Z,96819.53
2022-09-20T18:56:58.978Z,96787.53
2022-09-20T18:59:28.666Z,96767.47
2022-09-20T19:02:11.252Z,96738.16
2022-09-20T19:05:03.527Z,96706.31
2022-09-20T19:07:41.605Z,96685.19
2022-09-20T19:10:15.154Z,96668.50
2022-09-20T19:12:49.587Z,96650.88
2022-09-20T19:15:30.467Z,96638.28
2022-09-20T19:18:14.751Z,96627.41
2022-09-20T19:20:49.413Z,96603.88
2022-09-20T19:23:41.257Z,96598.84
2022-09-20T19:26:18.990Z,96600.59
2022-09-20T19:28:47.786Z,96594.63
2022-09-20T19:31:22.590Z,96591.38
2022-09-20T19:33:51.205Z,96598.16
2022-09-20T19:36:22.958Z,96583.00
2022-09-20T19:39:03.986Z,96581.25
2022-09-20T19:42:07.006Z,96581.38
2022-09-20T19:44:47.364Z,96572.97
2022-09-20T19:47:29.852Z,96563.75
2022-09-20T19:50:10.631Z,96554.66
2022-09-20T19:52:40.555Z,96541.94
2022-09-20T19:55:12.537Z,96518.38
2022-09-20T19:57:46.782Z,96495.78
2022-09-20T20:00:17.263Z,96477.50
2022-09-20T20:02:46.073Z,96456.50
2022-09-20T20:05:15.770Z,96432.94
2022-09-20T20:07:50.809Z,96413.75
2022-09-20T20:10:25.136Z,96397.91
2022-09-20T20:12:59.623Z,96370.03
2022-09-20T20:15:40.185Z,96352.56
2022-09-20T20:18:21.104Z,96332.44
2022-09-20T20:20:50.958Z,96322.41
2022-09-20T20:23:51.540Z,96303.22
2022-09-20T20:26:23.371Z,96289.81
2022-09-20T20:28:52.709Z,96291.56
2022-09-20T20:31:21.073Z,96277.38
2022-09-20T20:33:49.216Z,96251.13
2022-09-20T20:36:18.343Z,96238.69
2022-09-20T20:38:49.930Z,96224.50
2022-09-20T20:41:20.469Z,96203.56
2022-09-20T20:43:48.967Z,96184.50
2022-09-20T20:46:18.717Z,96151.66
2022-09-20T20:48:47.292Z,96130.69
2022-09-20T20:51:16.886Z,96114.06
2022-09-20T20:53:47.940Z,96097.31
2022-09-20T20:56:18.639Z,96082.19
2022-09-20T20:58:48.220Z,96073.94
2022-09-20T21:01:18.393Z,96055.44
2022-09-20T21:03:49.086Z,96047.19
2022-09-20T21:06:17.786Z,96039.63
2022-09-20T21:08:49.729Z,96036.41
2022-09-20T21:11:20.341Z,96023.88
2022-09-20T21:13:48.884Z,95996.03
2022-09-20T21:16:18.306Z,95980.09
2022-09-20T21:18:47.935Z,95964.47
2022-09-20T21:21:18.497Z,95942.88
2022-09-20T21:23:49.949Z,95921.13
2022-09-20T21:26:17.902Z,95895.09
2022-09-20T21:28:48.762Z,95888.63
2022-09-20T21:31:21.430Z,95865.81
2022-09-20T21:33:49.485Z,95847.44
2022-09-20T21:36:20.374Z,95835.88
2022-09-20T21:38:49.649Z,95814.97
2022-09-20T21:41:22.408Z,95800.00
2022-09-20T21:43:53.230Z,95779.91
2022-09-20T21:46:23.003Z,95770.06
2022-09-20T21:48:51.434Z,95745.66
2022-09-20T21:51:21.166Z,95734.75
2022-09-20T21:53:52.934Z,95729.88
2022-09-20T21:56:21.208Z,95717.38
2022-09-20T21:58:49.001Z,95698.75
2022-09-20T22:01:18.847Z,95704.97
2022-09-20T22:06:37.784Z,95693.91
2022-09-20T22:09:07.009Z,95685.72
2022-09-20T22:11:38.829Z,95686.63
2022-09-20T22:14:07.271Z,95668.97
2022-09-20T22:16:36.795Z,95659.03
2022-09-20T22:19:05.690Z,95646.63
2022-09-20T22:21:36.667Z,95625.75
2022-09-20T22:24:07.795Z,95603.13
2022-09-20T22:26:37.674Z,95597.47
2022-09-20T22:29:06.448Z,95581.44
2022-09-20T22:31:36.883Z,95579.94
2022-09-20T22:34:07.222Z,95567.44
2022-09-20T22:36:39.247Z,95555.72
2022-09-20T22:39:10.194Z,95540.78
2022-09-20T22:41:39.226Z,95524.09
2022-09-20T22:44:07.284Z,95508.19
2022-09-20T22:46:35.941Z,95501.72
2022-09-20T22:49:05.733Z,95489.88
2022-09-20T22:51:34.414Z,95487.59
2022-09-20T22:54:06.370Z,95481.84
2022-09-20T22:56:34.629Z,95476.84
2022-09-20T22:59:06.352Z,95463.38
2022-09-20T23:01:36.627Z,95466.09
2022-09-20T23:04:07.659Z,95449.25
2022-09-20T23:06:38.608Z,95425.84
2022-09-20T23:09:09.632Z,95413.47
2022-09-20T23:11:38.730Z,95401.75
2022-09-20T23:14:07.251Z,95380.91
2022-09-20T23:16:37.205Z,95368.56
2022-09-20T23:19:07.317Z,95353.47
2022-09-20T23:21:37.206Z,95341.78
2022-09-20T23:24:08.681Z,95330.22
2022-09-20T23:26:38.720Z,95327.94
2022-09-20T23:29:08.740Z,95316.25
2022-09-20T23:31:37.689Z,95307.91
2022-09-20T23:34:07.717Z,95293.66
2022-09-20T23:36:38.001Z,95277.78
2022-09-20T23:39:08.707Z,95270.41
2022-09-20T23:41:37.533Z,95254.66
2022-09-20T23:44:07.438Z,95242.97
2022-09-20T23:46:35.595Z,95234.63
2022-09-20T23:49:03.846Z,95218.75
2022-09-20T23:51:32.663Z,95212.19
2022-09-20T23:54:00.622Z,95202.09
2022-09-20T23:56:30.059Z,95200.50
2022-09-20T23:58:58.564Z,95200.63
